createdAt,value
2018-08-04T00:01:27.932Z,21.60
2018-08-04T00:03:56.074Z,21.60
2018-08-04T00:06:27.533Z,21.60
2018-08-04T00:09:00.740Z,21.50
2018-08-04T00:11:33.110Z,21.50
2018-08-04T00:14:03.661Z,21.50
2018-08-04T00:16:36.148Z,21.40
2018-08-04T00:19:08.858Z,21.40
2018-08-04T00:21:44.551Z,21.30
2018-08-04T00:24:12.989Z,21.30
2018-08-04T00:26:45.426Z,21.30
2018-08-04T00:29:14.228Z,21.20
2018-08-04T00:31:42.863Z,21.20
2018-08-04T00:34:14.412Z,21.20
2018-08-04T00:36:46.973Z,21.10
2018-08-04T00:39:18.194Z,21.10
2018-08-04T00:41:46.601Z,21.00
2018-08-04T00:44:17.269Z,21.00
2018-08-04T00:46:48.862Z,20.90
2018-08-04T00:49:24.277Z,20.90
2018-08-04T00:51:58.987Z,20.90
2018-08-04T00:54:35.648Z,20.80
2018-08-04T00:57:04.234Z,20.80
2018-08-04T00:59:32.802Z,20.80
2018-08-04T01:02:01.645Z,20.80
2018-08-04T01:04:43.897Z,20.70
2018-08-04T01:07:15.982Z,20.70
2018-08-04T01:09:44.412Z,20.60
2018-08-04T01:12:13.197Z,20.50
2018-08-04T01:14:41.371Z,20.50
2018-08-04T01:17:12.460Z,20.50
2018-08-04T01:19:46.273Z,20.40
2018-08-04T01:22:24.009Z,20.40
2018-08-04T01:24:52.290Z,20.30
2018-08-04T01:27:20.562Z,20.30
2018-08-04T01:29:57.418Z,20.20
2018-08-04T01:32:29.599Z,20.10
2018-08-04T01:35:04.373Z,20.10
2018-08-04T01:37:35.309Z,20.00
2018-08-04T01:40:04.529Z,20.00
2018-08-04T01:42:38.260Z,19.90
2018-08-04T01:45:13.923Z,19.90
2018-08-04T01:47:42.351Z,19.90
2018-08-04T01:50:14.855Z,19.80
2018-08-04T01:52:43.377Z,19.80
2018-08-04T01:55:11.962Z,19.70
2018-08-04T01:57:40.387Z,19.70
2018-08-04T02:00:09.006Z,19.60
2018-08-04T02:02:37.664Z,19.60
2018-08-04T02:05:14.067Z,19.50
2018-08-04T02:07:50.527Z,19.50
2018-08-04T02:10:31.206Z,19.40
2018-08-04T02:13:02.867Z,19.40
2018-08-04T02:15:35.977Z,19.40
2018-08-04T02:18:10.068Z,19.30
2018-08-04T02:20:38.466Z,19.30
2018-08-04T02:23:07.026Z,19.20
2018-08-04T02:25:35.311Z,19.20
2018-08-04T02:28:10.561Z,19.20
2018-08-04T02:30:44.167Z,19.10
2018-08-04T02:33:19.373Z,19.10
2018-08-04T02:35:52.809Z,19.10
2018-08-04T02:38:27.512Z,19.10
2018-08-04T02:41:02.838Z,19.00
2018-08-04T02:43:36.495Z,19.00
2018-08-04T02:46:07.874Z,18.90
2018-08-04T02:48:42.620Z,18.90
2018-08-04T02:51:10.873Z,18.90
2018-08-04T02:53:43.961Z,18.90
2018-08-04T02:56:16.462Z,18.80
2018-08-04T02:58:51.005Z,18.80
2018-08-04T03:01:25.907Z,18.80
2018-08-04T03:06:30.825Z,18.70
2018-08-04T03:08:59.060Z,18.60
2018-08-04T03:11:30.821Z,18.60
2018-08-04T03:13:59.404Z,18.60
2018-08-04T03:16:32.254Z,18.50
2018-08-04T03:19:07.673Z,18.50
2018-08-04T03:21:45.875Z,18.50
2018-08-04T03:24:18.456Z,18.40
2018-08-04T03:27:01.539Z,18.40
2018-08-04T03:29:32.192Z,18.40
2018-08-04T03:32:04.514Z,18.30
2018-08-04T03:34:32.941Z,18.30
2018-08-04T03:37:01.798Z,18.30
2018-08-04T03:39:35.072Z,18.30
2018-08-04T03:42:09.356Z,18.30
2018-08-04T03:44:37.864Z,18.30
2018-08-04T03:47:15.174Z,18.20
2018-08-04T03:49:43.636Z,18.20
2018-08-04T03:52:12.048Z,18.20
2018-08-04T03:54:40.549Z,18.20
2018-08-04T03:57:08.953Z,18.20
2018-08-04T03:59:41.487Z,18.20
2018-08-04T04:02:10.024Z,18.20
2018-08-04T04:04:38.340Z,18.10
2018-08-04T04:07:10.984Z,18.10
2018-08-04T04:09:39.676Z,18.00
2018-08-04T04:12:08.084Z,18.00
2018-08-04T04:14:36.489Z,18.00
2018-08-04T04:17:05.111Z,18.00
2018-08-04T04:19:33.925Z,18.00
2018-08-04T04:22:04.657Z,18.00
2018-08-04T04:24:39.335Z,18.00
2018-08-04T04:27:07.461Z,18.10
2018-08-04T04:29:43.817Z,18.10
2018-08-04T04:32:26.879Z,18.10
2018-08-04T04:34:55.774Z,18.20
2018-08-04T04:37:31.343Z,18.20
2018-08-04T04:40:05.342Z,18.30
2018-08-04T04:42:35.814Z,18.40
2018-08-04T04:47:34.598Z,18.70
2018-08-04T04:50:03.031Z,18.80
2018-08-04T04:52:31.499Z,18.90
2018-08-04T04:54:59.808Z,19.00
2018-08-04T04:57:33.179Z,19.20
2018-08-04T05:00:09.049Z,19.30
2018-08-04T05:02:37.603Z,19.40
2018-08-04T05:07:40.504Z,19.60
2018-08-04T05:10:12.081Z,19.60
2018-08-04T05:12:43.816Z,19.70
2018-08-04T05:15:24.588Z,19.70
2018-08-04T05:17:53.337Z,19.70
2018-08-04T05:20:21.539Z,19.70
2018-08-04T05:22:50.165Z,19.70
2018-08-04T05:25:18.539Z,19.70
2018-08-04T05:27:46.889Z,19.80
2018-08-04T05:30:18.393Z,19.90
2018-08-04T05:32:53.373Z,20.00
2018-08-04T05:35:29.498Z,20.00
2018-08-04T05:37:58.221Z,20.00
2018-08-04T05:40:28.518Z,20.00
2018-08-04T05:42:56.920Z,20.00
2018-08-04T05:45:25.728Z,20.00
2018-08-04T05:47:56.669Z,20.00
2018-08-04T05:50:31.486Z,20.10
2018-08-04T05:52:59.781Z,20.10
2018-08-04T05:55:28.173Z,20.20
2018-08-04T05:57:59.322Z,20.20
2018-08-04T06:00:32.720Z,20.20
2018-08-04T06:03:14.054Z,20.20
2018-08-04T06:05:56.245Z,20.30
2018-08-04T06:08:27.938Z,20.40
2018-08-04T06:10:59.424Z,20.50
2018-08-04T06:13:32.248Z,20.50
2018-08-04T06:16:05.872Z,20.70
2018-08-04T06:18:34.267Z,20.70
2018-08-04T06:21:02.691Z,20.80
2018-08-04T06:23:36.149Z,20.90
2018-08-04T06:26:09.085Z,21.10
2018-08-04T06:28:41.458Z,21.30
2018-08-04T06:31:11.930Z,21.60
2018-08-04T06:33:42.991Z,21.70
2018-08-04T06:36:18.414Z,22.00
2018-08-04T06:38:49.823Z,22.10
2018-08-04T06:41:24.504Z,22.30
2018-08-04T06:43:52.955Z,22.40
2018-08-04T06:46:21.713Z,22.60
2018-08-04T06:48:52.324Z,22.70
2018-08-04T06:51:32.507Z,22.90
2018-08-04T06:54:00.907Z,23.10
2018-08-04T06:56:29.331Z,23.40
2018-08-04T06:59:00.141Z,23.80
2018-08-04T07:01:30.667Z,24.10
2018-08-04T07:04:02.096Z,24.60
2018-08-04T07:06:32.409Z,24.90
2018-08-04T07:09:01.231Z,25.20
2018-08-04T07:11:31.608Z,25.40
2018-08-04T07:14:11.598Z,25.60
2018-08-04T07:16:39.988Z,25.90
2018-08-04T07:19:12.432Z,26.00
2018-08-04T07:21:43.851Z,25.90
2018-08-04T07:24:18.342Z,25.80
2018-08-04T07:26:53.927Z,26.00
2018-08-04T07:29:22.127Z,26.40
2018-08-04T07:31:57.779Z,26.70
2018-08-04T07:34:26.337Z,27.10
2018-08-04T07:36:54.669Z,27.50
2018-08-04T07:39:35.792Z,27.50
2018-08-04T07:42:14.210Z,27.50
2018-08-04T07:44:47.461Z,27.70
2018-08-04T07:47:19.362Z,27.90
2018-08-04T07:50:01.374Z,28.20
2018-08-04T07:52:32.665Z,28.30
2018-08-04T07:55:01.059Z,28.10
2018-08-04T07:57:29.797Z,28.40
2018-08-04T08:00:13.083Z,28.40
2018-08-04T08:02:43.427Z,28.30
2018-08-04T08:05:11.657Z,28.40
2018-08-04T08:07:44.792Z,28.10
2018-08-04T08:10:15.877Z,28.00
2018-08-04T08:12:44.120Z,28.00
2018-08-04T08:15:12.551Z,28.10
2018-08-04T08:17:45.829Z,28.20
2018-08-04T08:20:16.917Z,28.40
2018-08-04T08:22:45.313Z,28.60
2018-08-04T08:25:13.677Z,28.80
2018-08-04T08:27:41.861Z,28.90
2018-08-04T08:30:14.308Z,29.00
2018-08-04T08:32:48.967Z,29.00
2018-08-04T08:35:17.222Z,28.80
2018-08-04T08:37:54.026Z,28.70
2018-08-04T08:40:22.222Z,28.80
2018-08-04T08:45:30.832Z,29.40
2018-08-04T08:48:04.191Z,29.60
2018-08-04T08:50:35.366Z,29.70
2018-08-04T08:53:03.629Z,29.70
2018-08-04T08:55:37.976Z,29.90
2018-08-04T08:58:10.471Z,29.90
2018-08-04T09:00:45.057Z,29.90
2018-08-04T09:03:13.293Z,30.20
2018-08-04T09:05:44.256Z,30.30
2018-08-04T09:08:12.861Z,30.20
2018-08-04T09:10:43.345Z,30.30
2018-08-04T09:13:11.843Z,30.60
2018-08-04T09:15:42.520Z,30.70
2018-08-04T09:18:15.910Z,30.60
2018-08-04T09:20:49.140Z,30.70
2018-08-04T09:23:17.541Z,30.90
2018-08-04T09:25:45.846Z,31.30
2018-08-04T09:28:17.003Z,31.60
2018-08-04T09:30:51.722Z,31.70
2018-08-04T09:33:31.625Z,31.70
2018-08-04T09:36:02.986Z,31.50
2018-08-04T09:38:31.252Z,31.60
2018-08-04T09:40:59.557Z,31.20
2018-08-04T09:43:30.792Z,31.30
2018-08-04T09:46:06.201Z,31.70
2018-08-04T09:48:37.170Z,31.80
2018-08-04T09:51:05.817Z,32.00
2018-08-04T09:53:34.221Z,32.20
2018-08-04T09:56:02.697Z,32.40
2018-08-04T10:01:09.133Z,32.30
2018-08-04T10:03:48.996Z,32.40
2018-08-04T10:06:17.237Z,32.30
2018-08-04T10:08:48.697Z,32.40
2018-08-04T10:11:23.365Z,32.20
2018-08-04T10:13:51.689Z,32.20
2018-08-04T10:16:24.153Z,32.40
2018-08-04T10:18:56.753Z,32.70
2018-08-04T10:21:25.178Z,32.80
2018-08-04T10:23:53.439Z,32.60
2018-08-04T10:26:27.933Z,32.80
2018-08-04T10:29:02.572Z,32.80
2018-08-04T10:31:30.795Z,32.70
2018-08-04T10:34:05.593Z,32.60
2018-08-04T10:36:33.905Z,33.00
2018-08-04T10:39:02.262Z,33.10
2018-08-04T10:41:36.939Z,33.30
2018-08-04T10:44:05.390Z,33.10
2018-08-04T10:46:34.118Z,33.10
2018-08-04T10:49:02.349Z,33.30
2018-08-04T10:51:35.668Z,33.00
2018-08-04T10:54:13.338Z,33.00
2018-08-04T10:56:41.705Z,33.20
2018-08-04T10:59:18.322Z,33.30
2018-08-04T11:01:46.585Z,33.70
2018-08-04T11:04:19.021Z,33.60
2018-08-04T11:06:52.458Z,33.70
2018-08-04T11:09:27.076Z,33.70
2018-08-04T11:11:55.321Z,33.80
2018-08-04T11:14:30.753Z,33.80
2018-08-04T11:17:05.077Z,33.80
2018-08-04T11:19:37.618Z,34.00
2018-08-04T11:22:14.015Z,33.80
2018-08-04T11:24:44.250Z,34.00
2018-08-04T11:27:15.597Z,34.30
2018-08-04T11:29:43.987Z,34.60
2018-08-04T11:32:12.494Z,34.70
2018-08-04T11:34:40.837Z,34.40
2018-08-04T11:37:09.040Z,33.90
2018-08-04T11:39:42.202Z,33.80
2018-08-04T11:42:13.543Z,33.60
2018-08-04T11:44:41.864Z,33.70
2018-08-04T11:47:09.984Z,33.80
2018-08-04T11:49:44.526Z,33.40
2018-08-04T11:52:24.360Z,33.40
2018-08-04T11:54:52.783Z,33.50
2018-08-04T11:57:21.215Z,33.60
2018-08-04T11:59:49.342Z,33.60
2018-08-04T12:02:22.378Z,33.70
2018-08-04T12:04:52.633Z,33.80
2018-08-04T12:07:20.781Z,34.10
2018-08-04T12:09:57.091Z,34.20
2018-08-04T12:12:31.728Z,34.50
2018-08-04T12:15:04.258Z,34.60
2018-08-04T12:17:42.053Z,34.50
2018-08-04T12:20:10.520Z,34.40
2018-08-04T12:22:38.829Z,34.20
2018-08-04T12:25:07.086Z,34.10
2018-08-04T12:27:40.381Z,34.10
2018-08-04T12:30:12.630Z,34.00
2018-08-04T12:32:42.806Z,34.10
2018-08-04T12:35:10.923Z,34.40
2018-08-04T12:37:45.599Z,34.30
2018-08-04T12:40:13.740Z,34.20
2018-08-04T12:42:55.489Z,33.90
2018-08-04T12:45:23.767Z,33.90
2018-08-04T12:47:58.332Z,34.20
2018-08-04T12:50:31.730Z,34.40
2018-08-04T12:53:04.721Z,34.60
2018-08-04T12:55:35.521Z,34.80
2018-08-04T12:58:13.155Z,34.90
2018-08-04T13:00:50.778Z,35.00
2018-08-04T13:03:19.205Z,34.70
2018-08-04T13:05:47.426Z,34.60
2018-08-04T13:08:24.095Z,34.50
2018-08-04T13:10:52.270Z,34.60
2018-08-04T13:13:23.182Z,34.80
2018-08-04T13:15:51.658Z,35.10
2018-08-04T13:18:19.808Z,35.20
2018-08-04T13:20:59.637Z,35.00
2018-08-04T13:23:28.364Z,34.90
2018-08-04T13:25:56.843Z,34.90
2018-08-04T13:28:32.935Z,34.80
2018-08-04T13:31:01.180Z,34.70
2018-08-04T13:33:35.550Z,34.60
2018-08-04T13:36:06.615Z,34.40
2018-08-04T13:38:36.895Z,34.10
2018-08-04T13:41:19.337Z,33.90
2018-08-04T13:43:47.656Z,34.00
2018-08-04T13:46:15.805Z,34.30
2018-08-04T13:48:50.442Z,34.50
2018-08-04T13:51:21.605Z,34.70
2018-08-04T13:53:52.737Z,34.80
2018-08-04T13:56:21.274Z,34.40
2018-08-04T13:58:52.185Z,34.30
2018-08-04T14:01:27.699Z,34.10
2018-08-04T14:04:01.910Z,33.70
2018-08-04T14:06:44.663Z,33.30
2018-08-04T14:09:13.940Z,33.30
2018-08-04T14:11:50.066Z,33.20
2018-08-04T14:14:22.341Z,33.00
2018-08-04T14:16:50.744Z,33.00
2018-08-04T14:19:19.028Z,33.20
2018-08-04T14:21:47.218Z,33.30
2018-08-04T14:24:18.123Z,33.50
2018-08-04T14:26:46.533Z,33.40
2018-08-04T14:29:14.689Z,33.30
2018-08-04T14:31:46.972Z,33.10
2018-08-04T14:34:25.450Z,33.20
2018-08-04T14:36:55.889Z,33.30
2018-08-04T14:39:31.478Z,33.40
2018-08-04T14:42:06.229Z,33.50
2018-08-04T14:44:34.650Z,33.80
2018-08-04T14:49:41.375Z,33.90
2018-08-04T14:52:12.866Z,33.80
2018-08-04T14:54:48.902Z,33.80
2018-08-04T14:59:53.579Z,33.80
2018-08-04T15:02:21.874Z,33.80
2018-08-04T15:04:52.893Z,33.80
2018-08-04T15:07:23.198Z,34.00
2018-08-04T15:09:51.604Z,34.10
2018-08-04T15:12:20.054Z,34.30
2018-08-04T15:14:48.385Z,34.50
2018-08-04T15:17:19.507Z,34.40
2018-08-04T15:19:54.144Z,34.30
2018-08-04T15:22:28.669Z,34.10
2018-08-04T15:25:07.740Z,33.80
2018-08-04T15:27:45.612Z,33.60
2018-08-04T15:30:13.955Z,33.50
2018-08-04T15:32:44.918Z,33.40
2018-08-04T15:35:23.483Z,33.30
2018-08-04T15:37:57.111Z,33.30
2018-08-04T15:40:33.234Z,33.30
2018-08-04T15:43:09.625Z,33.30
2018-08-04T15:45:40.071Z,33.30
2018-08-04T15:48:26.701Z,33.10
2018-08-04T15:50:58.990Z,33.00
2018-08-04T15:53:30.316Z,32.80
2018-08-04T15:55:58.685Z,32.70
2018-08-04T15:58:26.914Z,32.70
2018-08-04T16:00:59.289Z,32.70
2018-08-04T16:03:33.967Z,32.40
2018-08-04T16:06:09.537Z,32.30
2018-08-04T16:08:41.250Z,32.10
2018-08-04T16:11:19.926Z,32.00
2018-08-04T16:13:52.316Z,32.00
2018-08-04T16:16:26.869Z,32.00
2018-08-04T16:19:01.440Z,32.00
2018-08-04T16:21:34.639Z,32.00
2018-08-04T16:24:05.614Z,32.00
2018-08-04T16:26:34.097Z,31.90
2018-08-04T16:29:02.390Z,31.80
2018-08-04T16:31:34.925Z,31.60
2018-08-04T16:34:03.099Z,31.50
2018-08-04T16:36:42.793Z,31.50
2018-08-04T16:39:10.938Z,31.50
2018-08-04T16:41:41.931Z,31.20
2018-08-04T16:44:10.176Z,31.10
2018-08-04T16:46:41.217Z,31.10
2018-08-04T16:49:12.652Z,31.10
2018-08-04T16:51:43.724Z,31.00
2018-08-04T16:56:49.269Z,30.70
2018-08-04T16:59:20.431Z,30.60
2018-08-04T17:01:50.793Z,30.50
2018-08-04T17:04:19.506Z,30.40
2018-08-04T17:06:47.636Z,30.20
2018-08-04T17:09:15.845Z,30.00
2018-08-04T17:11:50.680Z,29.90
2018-08-04T17:14:18.845Z,29.80
2018-08-04T17:16:54.154Z,29.70
2018-08-04T17:19:28.702Z,29.70
2018-08-04T17:22:08.617Z,29.70
2018-08-04T17:24:36.866Z,29.80
2018-08-04T17:27:05.390Z,29.70
2018-08-04T17:29:33.936Z,29.70
2018-08-04T17:32:02.079Z,29.60
2018-08-04T17:34:40.942Z,29.50
2018-08-04T17:37:12.326Z,29.30
2018-08-04T17:39:40.521Z,29.30
2018-08-04T17:42:14.945Z,29.20
2018-08-04T17:44:53.273Z,29.10
2018-08-04T17:47:27.901Z,29.00
2018-08-04T17:49:56.090Z,28.80
2018-08-04T17:52:28.215Z,28.80
2018-08-04T17:54:56.740Z,28.80
2018-08-04T17:57:25.010Z,28.70
2018-08-04T17:59:53.146Z,28.70
2018-08-04T18:02:28.437Z,28.50
2018-08-04T18:05:08.298Z,28.40
2018-08-04T18:07:36.795Z,28.20
2018-08-04T18:10:05.933Z,28.00
2018-08-04T18:12:43.638Z,27.80
2018-08-04T18:15:11.783Z,27.70
2018-08-04T18:17:47.770Z,27.50
2018-08-04T18:20:16.090Z,27.50
2018-08-04T18:22:44.421Z,27.50
2018-08-04T18:27:57.502Z,27.40
2018-08-04T18:30:25.773Z,27.20
2018-08-04T18:32:58.210Z,27.10
2018-08-04T18:35:32.808Z,27.00
2018-08-04T18:38:01.001Z,26.90
2018-08-04T18:40:35.499Z,26.80
2018-08-04T18:43:10.781Z,26.70
2018-08-04T18:45:52.772Z,26.60
2018-08-04T18:48:20.931Z,26.50
2018-08-04T18:50:55.407Z,26.40
2018-08-04T18:53:28.203Z,26.30
2018-08-04T18:55:56.491Z,26.20
2018-08-04T18:58:24.733Z,26.10
2018-08-04T19:00:59.241Z,26.00
2018-08-04T19:03:33.713Z,26.00
2018-08-04T19:06:03.991Z,25.90
2018-08-04T19:08:43.468Z,25.80
2018-08-04T19:11:18.130Z,25.80
2018-08-04T19:13:46.256Z,25.60
2018-08-04T19:16:20.432Z,25.50
2018-08-04T19:18:48.808Z,25.40
2018-08-04T19:21:16.965Z,25.20
2018-08-04T19:23:56.827Z,25.10
2018-08-04T19:26:25.059Z,25.00
2018-08-04T19:28:53.258Z,25.00
2018-08-04T19:31:27.698Z,24.90
2018-08-04T19:33:58.900Z,24.80
2018-08-04T19:36:27.323Z,24.70
2018-08-04T19:38:57.746Z,24.50
2018-08-04T19:41:28.133Z,24.40
2018-08-04T19:43:56.544Z,24.40
2018-08-04T19:46:24.754Z,24.30
2018-08-04T19:48:55.974Z,24.20
2018-08-04T19:51:30.944Z,24.10
2018-08-04T19:53:59.123Z,24.00
2018-08-04T19:56:36.601Z,23.90
2018-08-04T19:59:07.173Z,23.90
2018-08-04T20:01:35.331Z,23.80
2018-08-04T20:04:06.278Z,23.70
2018-08-04T20:06:34.468Z,23.60
2018-08-04T20:09:06.705Z,23.50
2018-08-04T20:11:37.890Z,23.50
2018-08-04T20:14:10.742Z,23.40
2018-08-04T20:16:46.345Z,23.40
2018-08-04T20:19:19.410Z,23.30
2018-08-04T20:21:51.673Z,23.30
2018-08-04T20:24:19.975Z,23.20
2018-08-04T20:26:48.185Z,23.10
2018-08-04T20:29:18.510Z,23.10
2018-08-04T20:31:53.884Z,23.00
2018-08-04T20:34:31.823Z,22.90
2018-08-04T20:37:00.015Z,22.90
2018-08-04T20:39:34.567Z,22.80
2018-08-04T20:42:05.784Z,22.70
2018-08-04T20:44:40.277Z,22.60
2018-08-04T20:47:14.878Z,22.60
2018-08-04T20:49:47.462Z,22.50
2018-08-04T20:52:15.705Z,22.50
2018-08-04T20:54:50.366Z,22.40
2018-08-04T20:57:18.610Z,22.40
2018-08-04T20:59:53.188Z,22.30
2018-08-04T21:02:26.263Z,22.20
2018-08-04T21:04:57.464Z,22.10
2018-08-04T21:07:26.069Z,22.10
2018-08-04T21:09:54.433Z,22.10
2018-08-04T21:12:22.597Z,22.10
2018-08-04T21:14:57.221Z,22.00
2018-08-04T21:17:25.368Z,22.00
2018-08-04T21:19:57.594Z,21.90
2018-08-04T21:22:27.768Z,21.90
2018-08-04T21:24:56.109Z,21.80
2018-08-04T21:27:28.418Z,21.80
2018-08-04T21:30:00.705Z,21.70
2018-08-04T21:32:41.153Z,21.70
2018-08-04T21:35:16.613Z,21.60
2018-08-04T21:37:56.609Z,21.50
2018-08-04T21:40:24.966Z,21.50
2018-08-04T21:42:53.108Z,21.50
2018-08-04T21:45:27.701Z,21.40
2018-08-04T21:47:55.908Z,21.40
2018-08-04T21:50:31.395Z,21.30
2018-08-04T21:53:06.799Z,21.30
2018-08-04T21:55:41.323Z,21.30
2018-08-04T21:58:21.002Z,21.30
2018-08-04T22:00:54.529Z,21.20
2018-08-04T22:03:26.112Z,21.10
2018-08-04T22:05:54.521Z,21.00
2018-08-04T22:08:35.961Z,21.00
2018-08-04T22:11:04.700Z,20.90
2018-08-04T22:13:51.793Z,20.90
2018-08-04T22:16:20.181Z,20.80
2018-08-04T22:18:48.440Z,20.80
2018-08-04T22:21:19.801Z,20.70
2018-08-04T22:23:52.880Z,20.70
2018-08-04T22:26:33.527Z,20.70
2018-08-04T22:29:08.297Z,20.60
2018-08-04T22:31:36.445Z,20.60
2018-08-04T22:34:07.398Z,20.50
2018-08-04T22:36:35.530Z,20.50
2018-08-04T22:39:07.678Z,20.50
2018-08-04T22:41:41.218Z,20.40
2018-08-04T22:44:13.726Z,20.40
2018-08-04T22:46:45.993Z,20.30
2018-08-04T22:49:17.301Z,20.30
2018-08-04T22:51:45.661Z,20.20
2018-08-04T22:54:13.872Z,20.10
2018-08-04T22:56:46.643Z,20.10
2018-08-04T22:59:15.701Z,20.10
2018-08-04T23:01:50.582Z,20.00
2018-08-04T23:04:18.789Z,20.00
2018-08-04T23:06:51.832Z,20.00
2018-08-04T23:09:21.970Z,19.90
2018-08-04T23:11:50.111Z,19.90
2018-08-04T23:14:25.468Z,19.80
2018-08-04T23:16:57.890Z,19.80
2018-08-04T23:19:28.920Z,19.80
2018-08-04T23:21:56.941Z,19.70
2018-08-04T23:24:31.516Z,19.70
2018-08-04T23:27:04.501Z,19.60
2018-08-04T23:29:34.778Z,19.60
2018-08-04T23:32:03.083Z,19.60
2018-08-04T23:34:33.973Z,19.60
2018-08-04T23:37:05.060Z,19.60
2018-08-04T23:39:33.181Z,19.50
2018-08-04T23:42:08.638Z,19.50
2018-08-04T23:44:39.572Z,19.40
2018-08-04T23:47:08.715Z,19.30
2018-08-04T23:49:43.304Z,19.30
2018-08-04T23:52:15.740Z,19.30
2018-08-04T23:54:52.287Z,19.20
2018-08-04T23:57:20.545Z,19.10
2018-08-04T23:59:53.495Z,19.10
